sensor_id;sensor_type;location;lat;lon;timestamp;pressure;altitude;pressure_sealevel;temperature;humidity
62333;BME280;48624;49.812;8.562;2023-05-19T00:00:40;101267.19;;;10.28;64.98
62333;BME280;48624;49.812;8.562;2023-05-19T00:03:05;101265.25;;;9.98;66.50
62333;BME280;48624;49.812;8.562;2023-05-19T00:05:33;101265.53;;;10.09;66.31
62333;BME280;48624;49.812;8.562;2023-05-19T00:08:01;101260.88;;;9.97;66.55
62333;BME280;48624;49.812;8.562;2023-05-19T00:10:28;101259.06;;;9.97;67.00
62333;BME280;48624;49.812;8.562;2023-05-19T00:12:56;101265.00;;;10.03;66.04
62333;BME280;48624;49.812;8.562;2023-05-19T00:15:22;101267.34;;;9.91;67.07
62333;BME280;48624;49.812;8.562;2023-05-19T00:17:47;101262.06;;;9.91;66.75
62333;BME280;48624;49.812;8.562;2023-05-19T00:20:12;101266.19;;;9.79;67.62
62333;BME280;48624;49.812;8.562;2023-05-19T00:22:38;101267.03;;;9.80;67.93
62333;BME280;48624;49.812;8.562;2023-05-19T00:25:04;101264.97;;;9.69;68.41
62333;BME280;48624;49.812;8.562;2023-05-19T00:27:30;101260.97;;;9.78;67.84
62333;BME280;48624;49.812;8.562;2023-05-19T00:29:55;101259.09;;;9.80;67.88
62333;BME280;48624;49.812;8.562;2023-05-19T00:32:20;101266.34;;;9.76;67.85
62333;BME280;48624;49.812;8.562;2023-05-19T00:34:46;101266.28;;;9.60;68.79
62333;BME280;48624;49.812;8.562;2023-05-19T00:37:12;101257.72;;;9.55;69.10
62333;BME280;48624;49.812;8.562;2023-05-19T00:39:38;101266.19;;;9.62;69.00
62333;BME280;48624;49.812;8.562;2023-05-19T00:42:03;101262.78;;;9.60;69.20
62333;BME280;48624;49.812;8.562;2023-05-19T00:44:30;101262.06;;;9.38;69.99
62333;BME280;48624;49.812;8.562;2023-05-19T00:46:56;101260.28;;;9.56;69.22
62333;BME280;48624;49.812;8.562;2023-05-19T00:49:23;101266.97;;;9.64;68.52
62333;BME280;48624;49.812;8.562;2023-05-19T00:51:48;101265.47;;;9.40;69.98
62333;BME280;48624;49.812;8.562;2023-05-19T00:54:14;101260.97;;;9.60;68.73
62333;BME280;48624;49.812;8.562;2023-05-19T00:56:40;101255.31;;;9.50;69.15
62333;BME280;48624;49.812;8.562;2023-05-19T00:59:05;101251.63;;;9.53;69.66
62333;BME280;48624;49.812;8.562;2023-05-19T01:01:31;101259.34;;;9.40;70.34
62333;BME280;48624;49.812;8.562;2023-05-19T01:03:57;101255.31;;;9.33;70.23
62333;BME280;48624;49.812;8.562;2023-05-19T01:06:23;101251.78;;;9.32;70.46
62333;BME280;48624;49.812;8.562;2023-05-19T01:08:50;101257.03;;;9.14;71.75
62333;BME280;48624;49.812;8.562;2023-05-19T01:11:15;101247.72;;;9.07;72.00
62333;BME280;48624;49.812;8.562;2023-05-19T01:13:41;101246.59;;;8.94;72.62
62333;BME280;48624;49.812;8.562;2023-05-19T01:16:09;101244.59;;;8.99;72.46
62333;BME280;48624;49.812;8.562;2023-05-19T01:18:48;101245.75;;;8.93;72.72
62333;BME280;48624;49.812;8.562;2023-05-19T01:21:39;101242.88;;;8.98;72.40
62333;BME280;48624;49.812;8.562;2023-05-19T01:27:40;101242.91;;;8.79;73.18
62333;BME280;48624;49.812;8.562;2023-05-19T01:32:50;101240.97;;;8.82;73.44
62333;BME280;48624;49.812;8.562;2023-05-19T01:35:18;101251.97;;;8.92;72.61
62333;BME280;48624;49.812;8.562;2023-05-19T01:37:45;101248.19;;;8.98;72.11
62333;BME280;48624;49.812;8.562;2023-05-19T01:40:11;101242.53;;;8.86;72.71
62333;BME280;48624;49.812;8.562;2023-05-19T01:42:38;101241.91;;;8.62;73.61
62333;BME280;48624;49.812;8.562;2023-05-19T01:45:06;101248.13;;;8.61;74.31
62333;BME280;48624;49.812;8.562;2023-05-19T01:47:35;101244.50;;;8.64;73.74
62333;BME280;48624;49.812;8.562;2023-05-19T01:50:04;101248.63;;;8.50;74.51
62333;BME280;48624;49.812;8.562;2023-05-19T01:52:29;101251.25;;;8.69;73.58
62333;BME280;48624;49.812;8.562;2023-05-19T01:54:55;101242.84;;;8.61;74.06
62333;BME280;48624;49.812;8.562;2023-05-19T01:57:33;101248.44;;;8.55;75.11
62333;BME280;48624;49.812;8.562;2023-05-19T02:02:47;101253.13;;;8.67;73.90
62333;BME280;48624;49.812;8.562;2023-05-19T02:05:27;101257.28;;;8.54;74.77
62333;BME280;48624;49.812;8.562;2023-05-19T02:10:46;101260.03;;;8.51;74.75
62333;BME280;48624;49.812;8.562;2023-05-19T02:13:17;101261.72;;;8.32;75.70
62333;BME280;48624;49.812;8.562;2023-05-19T02:15:44;101265.84;;;8.59;74.37
62333;BME280;48624;49.812;8.562;2023-05-19T02:18:11;101257.69;;;8.44;75.35
62333;BME280;48624;49.812;8.562;2023-05-19T02:20:38;101264.16;;;8.37;76.01
62333;BME280;48624;49.812;8.562;2023-05-19T02:23:03;101263.56;;;8.51;75.28
62333;BME280;48624;49.812;8.562;2023-05-19T02:25:29;101265.13;;;8.55;74.79
62333;BME280;48624;49.812;8.562;2023-05-19T02:27:57;101253.63;;;8.56;74.59
62333;BME280;48624;49.812;8.562;2023-05-19T02:30:22;101268.84;;;8.51;74.81
62333;BME280;48624;49.812;8.562;2023-05-19T02:32:47;101256.41;;;8.53;74.67
62333;BME280;48624;49.812;8.562;2023-05-19T02:35:13;101259.78;;;8.57;74.22
62333;BME280;48624;49.812;8.562;2023-05-19T02:37:38;101257.69;;;8.44;75.34
62333;BME280;48624;49.812;8.562;2023-05-19T02:40:04;101255.28;;;8.59;73.78
62333;BME280;48624;49.812;8.562;2023-05-19T02:42:30;101257.53;;;8.47;74.85
62333;BME280;48624;49.812;8.562;2023-05-19T02:44:55;101256.16;;;8.39;75.48
62333;BME280;48624;49.812;8.562;2023-05-19T02:47:20;101247.91;;;8.46;74.75
62333;BME280;48624;49.812;8.562;2023-05-19T02:49:46;101251.38;;;8.28;76.09
62333;BME280;48624;49.812;8.562;2023-05-19T02:52:11;101246.09;;;8.28;76.22
62333;BME280;48624;49.812;8.562;2023-05-19T02:54:36;101248.91;;;8.04;77.45
62333;BME280;48624;49.812;8.562;2023-05-19T02:57:01;101239.84;;;8.10;76.73
62333;BME280;48624;49.812;8.562;2023-05-19T02:59:27;101239.41;;;8.00;77.49
62333;BME280;48624;49.812;8.562;2023-05-19T03:01:59;101251.09;;;7.94;77.48
62333;BME280;48624;49.812;8.562;2023-05-19T03:04:25;101244.13;;;8.12;76.45
62333;BME280;48624;49.812;8.562;2023-05-19T03:06:51;101245.31;;;7.86;78.26
62333;BME280;48624;49.812;8.562;2023-05-19T03:09:18;101241.59;;;7.90;78.02
62333;BME280;48624;49.812;8.562;2023-05-19T03:11:43;101239.75;;;7.71;78.93
62333;BME280;48624;49.812;8.562;2023-05-19T03:14:09;101241.88;;;7.84;78.38
62333;BME280;48624;49.812;8.562;2023-05-19T03:16:34;101242.84;;;8.02;77.52
62333;BME280;48624;49.812;8.562;2023-05-19T03:18:59;101239.56;;;7.97;77.95
62333;BME280;48624;49.812;8.562;2023-05-19T03:21:25;101246.06;;;8.09;77.01
62333;BME280;48624;49.812;8.562;2023-05-19T03:23:51;101243.81;;;7.99;77.64
62333;BME280;48624;49.812;8.562;2023-05-19T03:26:16;101240.97;;;8.04;77.51
62333;BME280;48624;49.812;8.562;2023-05-19T03:28:41;101241.13;;;8.01;77.31
62333;BME280;48624;49.812;8.562;2023-05-19T03:31:07;101243.47;;;7.67;79.12
62333;BME280;48624;49.812;8.562;2023-05-19T03:33:32;101250.09;;;7.76;79.21
62333;BME280;48624;49.812;8.562;2023-05-19T03:35:57;101247.16;;;7.84;79.10
62333;BME280;48624;49.812;8.562;2023-05-19T03:38:23;101249.13;;;7.78;79.17
62333;BME280;48624;49.812;8.562;2023-05-19T03:40:48;101257.63;;;7.85;78.52
62333;BME280;48624;49.812;8.562;2023-05-19T03:43:14;101260.06;;;7.90;78.43
62333;BME280;48624;49.812;8.562;2023-05-19T03:45:40;101261.34;;;7.81;78.68
62333;BME280;48624;49.812;8.562;2023-05-19T03:48:07;101260.72;;;7.95;77.81
62333;BME280;48624;49.812;8.562;2023-05-19T03:50:32;101257.50;;;7.88;77.64
62333;BME280;48624;49.812;8.562;2023-05-19T03:52:59;101258.91;;;7.76;78.90
62333;BME280;48624;49.812;8.562;2023-05-19T03:55:25;101263.38;;;7.74;78.88
62333;BME280;48624;49.812;8.562;2023-05-19T03:57:53;101259.22;;;7.69;79.46
62333;BME280;48624;49.812;8.562;2023-05-19T04:00:19;101250.19;;;7.74;79.73
62333;BME280;48624;49.812;8.562;2023-05-19T04:02:44;101254.34;;;7.59;80.68
62333;BME280;48624;49.812;8.562;2023-05-19T04:05:09;101256.84;;;7.62;80.18
62333;BME280;48624;49.812;8.562;2023-05-19T04:07:35;101258.94;;;7.54;80.82
62333;BME280;48624;49.812;8.562;2023-05-19T04:10:03;101255.78;;;7.67;80.58
62333;BME280;48624;49.812;8.562;2023-05-19T04:12:29;101259.88;;;7.53;80.94
62333;BME280;48624;49.812;8.562;2023-05-19T04:14:54;101260.22;;;7.66;80.40
62333;BME280;48624;49.812;8.562;2023-05-19T04:17:19;101259.22;;;7.89;79.39
62333;BME280;48624;49.812;8.562;2023-05-19T04:19:45;101266.16;;;7.92;78.94
62333;BME280;48624;49.812;8.562;2023-05-19T04:22:10;101269.38;;;7.99;78.58
62333;BME280;48624;49.812;8.562;2023-05-19T04:24:36;101262.38;;;7.98;79.32
62333;BME280;48624;49.812;8.562;2023-05-19T04:27:01;101272.94;;;7.98;78.93
62333;BME280;48624;49.812;8.562;2023-05-19T04:29:28;101275.97;;;8.09;78.08
62333;BME280;48624;49.812;8.562;2023-05-19T04:31:54;101269.38;;;7.99;78.92
62333;BME280;48624;49.812;8.562;2023-05-19T04:34:20;101269.28;;;8.00;79.20
62333;BME280;48624;49.812;8.562;2023-05-19T04:36:45;101274.75;;;7.96;79.38
62333;BME280;48624;49.812;8.562;2023-05-19T04:39:12;101271.41;;;8.13;78.53
62333;BME280;48624;49.812;8.562;2023-05-19T04:41:38;101277.50;;;7.94;79.71
62333;BME280;48624;49.812;8.562;2023-05-19T04:44:05;101273.97;;;8.14;78.75
62333;BME280;48624;49.812;8.562;2023-05-19T04:46:31;101271.56;;;8.29;78.26
62333;BME280;48624;49.812;8.562;2023-05-19T04:48:57;101282.91;;;8.31;77.79
62333;BME280;48624;49.812;8.562;2023-05-19T04:51:25;101279.13;;;8.37;77.86
62333;BME280;48624;49.812;8.562;2023-05-19T04:53:55;101281.75;;;8.17;79.40
62333;BME280;48624;49.812;8.562;2023-05-19T04:56:21;101284.84;;;8.07;79.64
62333;BME280;48624;49.812;8.562;2023-05-19T04:58:47;101287.09;;;8.16;79.54
62333;BME280;48624;49.812;8.562;2023-05-19T05:01:13;101290.31;;;8.23;78.90
62333;BME280;48624;49.812;8.562;2023-05-19T05:03:40;101290.09;;;8.08;79.51
62333;BME280;48624;49.812;8.562;2023-05-19T05:06:05;101291.97;;;8.25;79.35
62333;BME280;48624;49.812;8.562;2023-05-19T05:08:30;101289.88;;;8.13;80.56
62333;BME280;48624;49.812;8.562;2023-05-19T05:10:56;101290.31;;;8.23;80.24
62333;BME280;48624;49.812;8.562;2023-05-19T05:13:22;101287.97;;;8.36;79.91
62333;BME280;48624;49.812;8.562;2023-05-19T05:15:48;101295.28;;;8.50;80.09
62333;BME280;48624;49.812;8.562;2023-05-19T05:18:16;101287.25;;;8.53;80.11
62333;BME280;48624;49.812;8.562;2023-05-19T05:20:42;101283.47;;;8.58;79.73
62333;BME280;48624;49.812;8.562;2023-05-19T05:23:08;101282.09;;;8.88;77.81
62333;BME280;48624;49.812;8.562;2023-05-19T05:25:35;101277.31;;;8.96;78.16
62333;BME280;48624;49.812;8.562;2023-05-19T05:28:00;101276.50;;;9.13;77.00
62333;BME280;48624;49.812;8.562;2023-05-19T05:30:29;101273.94;;;9.12;77.03
62333;BME280;48624;49.812;8.562;2023-05-19T05:32:54;101269.75;;;9.25;75.95
62333;BME280;48624;49.812;8.562;2023-05-19T05:35:22;101274.97;;;9.27;75.05
62333;BME280;48624;49.812;8.562;2023-05-19T05:37:48;101272.91;;;9.51;74.60
62333;BME280;48624;49.812;8.562;2023-05-19T05:40:13;101263.38;;;9.47;75.16
62333;BME280;48624;49.812;8.562;2023-05-19T05:42:39;101259.97;;;9.80;73.26
62333;BME280;48624;49.812;8.562;2023-05-19T05:45:04;101271.72;;;9.75;74.72
62333;BME280;48624;49.812;8.562;2023-05-19T05:47:30;101269.38;;;9.86;74.44
62333;BME280;48624;49.812;8.562;2023-05-19T05:49:56;101269.13;;;10.08;73.25
62333;BME280;48624;49.812;8.562;2023-05-19T05:52:26;101274.50;;;10.23;73.13
62333;BME280;48624;49.812;8.562;2023-05-19T05:54:53;101275.38;;;10.23;72.48
62333;BME280;48624;49.812;8.562;2023-05-19T05:57:19;101268.03;;;10.28;72.11
62333;BME280;48624;49.812;8.562;2023-05-19T05:59:44;101271.88;;;10.23;72.30
62333;BME280;48624;49.812;8.562;2023-05-19T06:02:11;101278.94;;;10.40;71.50
62333;BME280;48624;49.812;8.562;2023-05-19T06:04:36;101277.34;;;10.53;72.06
62333;BME280;48624;49.812;8.562;2023-05-19T06:07:01;101274.56;;;10.73;71.30
62333;BME280;48624;49.812;8.562;2023-05-19T06:09:27;101274.97;;;10.81;70.57
62333;BME280;48624;49.812;8.562;2023-05-19T06:11:53;101275.75;;;10.83;71.34
62333;BME280;48624;49.812;8.562;2023-05-19T06:14:19;101278.66;;;10.94;71.40
62333;BME280;48624;49.812;8.562;2023-05-19T06:16:44;101275.66;;;11.01;71.39
62333;BME280;48624;49.812;8.562;2023-05-19T06:19:12;101271.00;;;11.04;69.77
62333;BME280;48624;49.812;8.562;2023-05-19T06:21:37;101265.59;;;11.22;70.01
62333;BME280;48624;49.812;8.562;2023-05-19T06:24:02;101262.81;;;11.40;69.11
62333;BME280;48624;49.812;8.562;2023-05-19T06:26:28;101262.59;;;11.28;70.85
62333;BME280;48624;49.812;8.562;2023-05-19T06:28:53;101266.44;;;11.38;69.57
62333;BME280;48624;49.812;8.562;2023-05-19T06:31:18;101259.56;;;11.50;68.79
62333;BME280;48624;49.812;8.562;2023-05-19T06:33:43;101259.56;;;11.65;68.82
62333;BME280;48624;49.812;8.562;2023-05-19T06:36:09;101259.44;;;11.97;68.22
62333;BME280;48624;49.812;8.562;2023-05-19T06:38:34;101270.50;;;12.05;64.86
62333;BME280;48624;49.812;8.562;2023-05-19T06:41:00;101267.25;;;12.29;63.21
62333;BME280;48624;49.812;8.562;2023-05-19T06:43:25;101268.22;;;12.28;61.42
62333;BME280;48624;49.812;8.562;2023-05-19T06:45:52;101273.34;;;12.46;60.27
62333;BME280;48624;49.812;8.562;2023-05-19T06:48:18;101267.97;;;12.60;60.55
62333;BME280;48624;49.812;8.562;2023-05-19T06:50:43;101265.56;;;12.43;60.15
62333;BME280;48624;49.812;8.562;2023-05-19T06:53:08;101270.91;;;12.70;59.24
62333;BME280;48624;49.812;8.562;2023-05-19T06:55:33;101271.81;;;12.84;59.22
62333;BME280;48624;49.812;8.562;2023-05-19T06:57:59;101273.59;;;12.56;59.05
62333;BME280;48624;49.812;8.562;2023-05-19T07:00:24;101275.13;;;12.60;59.75
62333;BME280;48624;49.812;8.562;2023-05-19T07:02:49;101273.22;;;12.62;58.97
62333;BME280;48624;49.812;8.562;2023-05-19T07:05:15;101269.69;;;13.03;58.14
62333;BME280;48624;49.812;8.562;2023-05-19T07:07:40;101268.28;;;13.25;56.34
62333;BME280;48624;49.812;8.562;2023-05-19T07:10:06;101264.44;;;13.29;56.55
62333;BME280;48624;49.812;8.562;2023-05-19T07:12:31;101258.94;;;13.05;58.03
62333;BME280;48624;49.812;8.562;2023-05-19T07:14:57;101259.75;;;13.48;56.14
62333;BME280;48624;49.812;8.562;2023-05-19T07:17:22;101246.16;;;14.04;55.08
62333;BME280;48624;49.812;8.562;2023-05-19T07:19:47;101248.41;;;14.10;54.55
62333;BME280;48624;49.812;8.562;2023-05-19T07:22:12;101250.94;;;14.12;53.59
62333;BME280;48624;49.812;8.562;2023-05-19T07:24:39;101247.97;;;13.91;55.55
62333;BME280;48624;49.812;8.562;2023-05-19T07:27:05;101247.91;;;14.42;52.61
62333;BME280;48624;49.812;8.562;2023-05-19T07:29:30;101242.38;;;14.70;52.17
62333;BME280;48624;49.812;8.562;2023-05-19T07:31:56;101243.47;;;14.30;54.33
62333;BME280;48624;49.812;8.562;2023-05-19T07:34:23;101235.13;;;15.09;50.76
62333;BME280;48624;49.812;8.562;2023-05-19T07:36:48;101242.31;;;14.96;51.00
62333;BME280;48624;49.812;8.562;2023-05-19T07:39:14;101235.78;;;15.24;50.81
62333;BME280;48624;49.812;8.562;2023-05-19T07:41:39;101236.44;;;15.04;51.06
62333;BME280;48624;49.812;8.562;2023-05-19T07:44:04;101223.72;;;15.43;50.13
62333;BME280;48624;49.812;8.562;2023-05-19T07:46:35;101226.22;;;15.80;49.60
62333;BME280;48624;49.812;8.562;2023-05-19T07:49:02;101229.34;;;15.74;49.09
62333;BME280;48624;49.812;8.562;2023-05-19T07:51:27;101238.06;;;16.23;48.23
62333;BME280;48624;49.812;8.562;2023-05-19T07:53:52;101220.06;;;16.26;48.12
62333;BME280;48624;49.812;8.562;2023-05-19T07:56:18;101219.28;;;15.89;48.52
62333;BME280;48624;49.812;8.562;2023-05-19T07:58:43;101213.47;;;15.84;49.89
62333;BME280;48624;49.812;8.562;2023-05-19T08:01:08;101213.69;;;16.49;47.16
62333;BME280;48624;49.812;8.562;2023-05-19T08:03:34;101209.03;;;16.74;46.77
62333;BME280;48624;49.812;8.562;2023-05-19T08:05:59;101203.38;;;15.76;48.02
62333;BME280;48624;49.812;8.562;2023-05-19T08:08:25;101207.44;;;16.72;46.77
62333;BME280;48624;49.812;8.562;2023-05-19T08:10:50;101204.19;;;16.57;47.12
62333;BME280;48624;49.812;8.562;2023-05-19T08:13:16;101211.41;;;17.00;45.65
62333;BME280;48624;49.812;8.562;2023-05-19T08:15:41;101200.31;;;16.61;45.73
62333;BME280;48624;49.812;8.562;2023-05-19T08:18:06;101206.47;;;16.06;47.85
62333;BME280;48624;49.812;8.562;2023-05-19T08:20:32;101210.94;;;16.84;45.97
62333;BME280;48624;49.812;8.562;2023-05-19T08:22:58;101214.91;;;17.01;46.16
62333;BME280;48624;49.812;8.562;2023-05-19T08:25:23;101207.38;;;16.95;45.00
62333;BME280;48624;49.812;8.562;2023-05-19T08:27:49;101201.16;;;16.94;45.25
62333;BME280;48624;49.812;8.562;2023-05-19T08:30:14;101203.81;;;17.05;45.79
62333;BME280;48624;49.812;8.562;2023-05-19T08:32:39;101193.28;;;17.46;44.04
62333;BME280;48624;49.812;8.562;2023-05-19T08:35:06;101193.06;;;17.59;43.71
62333;BME280;48624;49.812;8.562;2023-05-19T08:37:32;101202.59;;;17.31;43.57
62333;BME280;48624;49.812;8.562;2023-05-19T08:40:01;101193.00;;;17.50;43.66
62333;BME280;48624;49.812;8.562;2023-05-19T08:42:28;101186.09;;;17.26;42.83
62333;BME280;48624;49.812;8.562;2023-05-19T08:44:54;101181.66;;;17.57;43.66
62333;BME280;48624;49.812;8.562;2023-05-19T08:47:19;101189.00;;;17.65;42.04
62333;BME280;48624;49.812;8.562;2023-05-19T08:49:46;101176.47;;;17.66;41.78
62333;BME280;48624;49.812;8.562;2023-05-19T08:54:54;101175.84;;;17.83;42.88
62333;BME280;48624;49.812;8.562;2023-05-19T08:57:26;101169.44;;;17.43;42.60
62333;BME280;48624;49.812;8.562;2023-05-19T08:59:53;101172.50;;;17.91;43.08
62333;BME280;48624;49.812;8.562;2023-05-19T09:02:19;101177.56;;;18.25;41.60
62333;BME280;48624;49.812;8.562;2023-05-19T09:04:46;101164.41;;;17.81;42.77
62333;BME280;48624;49.812;8.562;2023-05-19T09:07:15;101166.66;;;18.07;43.29
62333;BME280;48624;49.812;8.562;2023-05-19T09:09:41;101158.66;;;18.27;41.66
62333;BME280;48624;49.812;8.562;2023-05-19T09:12:11;101152.59;;;18.25;41.08
62333;BME280;48624;49.812;8.562;2023-05-19T09:14:37;101148.78;;;18.27;40.59
62333;BME280;48624;49.812;8.562;2023-05-19T09:17:03;101151.06;;;18.42;40.62
62333;BME280;48624;49.812;8.562;2023-05-19T09:19:29;101149.84;;;18.66;40.33
62333;BME280;48624;49.812;8.562;2023-05-19T09:22:01;101152.22;;;18.49;39.48
62333;BME280;48624;49.812;8.562;2023-05-19T09:24:32;101155.06;;;18.07;41.52
62333;BME280;48624;49.812;8.562;2023-05-19T09:26:58;101151.22;;;18.50;40.33
62333;BME280;48624;49.812;8.562;2023-05-19T09:29:23;101146.69;;;18.41;40.10
62333;BME280;48624;49.812;8.562;2023-05-19T09:31:54;101137.66;;;18.42;41.17
62333;BME280;48624;49.812;8.562;2023-05-19T09:34:24;101132.72;;;18.57;41.04
62333;BME280;48624;49.812;8.562;2023-05-19T09:36:51;101133.72;;;18.56;40.36
62333;BME280;48624;49.812;8.562;2023-05-19T09:39:23;101127.63;;;18.93;39.96
62333;BME280;48624;49.812;8.562;2023-05-19T09:41:53;101137.66;;;18.62;40.13
62333;BME280;48624;49.812;8.562;2023-05-19T09:46:51;101127.22;;;19.65;39.16
62333;BME280;48624;49.812;8.562;2023-05-19T09:49:21;101131.59;;;20.04;39.23
62333;BME280;48624;49.812;8.562;2023-05-19T09:51:56;101132.03;;;19.62;39.72
62333;BME280;48624;49.812;8.562;2023-05-19T09:54:23;101122.06;;;19.82;39.72
62333;BME280;48624;49.812;8.562;2023-05-19T09:56:59;101122.38;;;20.07;38.57
62333;BME280;48624;49.812;8.562;2023-05-19T09:59:25;101114.34;;;19.97;39.05
62333;BME280;48624;49.812;8.562;2023-05-19T10:01:56;101117.66;;;20.55;37.80
62333;BME280;48624;49.812;8.562;2023-05-19T10:04:23;101122.50;;;20.33;38.50
62333;BME280;48624;49.812;8.562;2023-05-19T10:06:51;101113.78;;;20.03;38.45
62333;BME280;48624;49.812;8.562;2023-05-19T10:09:21;101116.09;;;20.16;37.65
62333;BME280;48624;49.812;8.562;2023-05-19T10:11:53;101117.78;;;20.17;37.60
62333;BME280;48624;49.812;8.562;2023-05-19T10:14:23;101115.16;;;20.07;38.32
62333;BME280;48624;49.812;8.562;2023-05-19T10:16:51;101117.91;;;19.88;36.82
62333;BME280;48624;49.812;8.562;2023-05-19T10:19:20;101108.84;;;19.99;37.53
62333;BME280;48624;49.812;8.562;2023-05-19T10:21:46;101108.28;;;19.09;39.87
62333;BME280;48624;49.812;8.562;2023-05-19T10:24:12;101107.41;;;19.66;37.93
62333;BME280;48624;49.812;8.562;2023-05-19T10:26:39;101101.78;;;19.88;37.74
62333;BME280;48624;49.812;8.562;2023-05-19T10:29:05;101092.00;;;19.68;38.84
62333;BME280;48624;49.812;8.562;2023-05-19T10:31:31;101102.66;;;19.88;37.92
62333;BME280;48624;49.812;8.562;2023-05-19T10:34:22;101092.34;;;19.83;38.08
62333;BME280;48624;49.812;8.562;2023-05-19T10:36:58;101098.19;;;19.69;39.94
62333;BME280;48624;49.812;8.562;2023-05-19T10:39:28;101092.72;;;18.93;39.95
62333;BME280;48624;49.812;8.562;2023-05-19T10:47:29;101087.97;;;19.82;37.77
62333;BME280;48624;49.812;8.562;2023-05-19T10:49:55;101086.44;;;19.70;38.90
62333;BME280;48624;49.812;8.562;2023-05-19T10:52:22;101083.59;;;20.64;36.81
62333;BME280;48624;49.812;8.562;2023-05-19T10:54:49;101085.13;;;18.98;39.62
62333;BME280;48624;49.812;8.562;2023-05-19T10:57:16;101082.03;;;19.51;39.12
62333;BME280;48624;49.812;8.562;2023-05-19T10:59:42;101075.75;;;19.60;39.45
62333;BME280;48624;49.812;8.562;2023-05-19T11:02:40;101080.56;;;19.57;39.24
62333;BME280;48624;49.812;8.562;2023-05-19T11:05:10;101079.03;;;20.64;38.16
62333;BME280;48624;49.812;8.562;2023-05-19T11:07:40;101073.03;;;20.89;37.24
62333;BME280;48624;49.812;8.562;2023-05-19T11:10:07;101079.69;;;21.29;35.76
62333;BME280;48624;49.812;8.562;2023-05-19T11:12:40;101078.59;;;21.14;36.36
62333;BME280;48624;49.812;8.562;2023-05-19T11:15:09;101074.69;;;21.69;36.10
62333;BME280;48624;49.812;8.562;2023-05-19T11:17:35;101070.34;;;21.76;35.79
62333;BME280;48624;49.812;8.562;2023-05-19T11:20:00;101075.88;;;21.40;36.36
62333;BME280;48624;49.812;8.562;2023-05-19T11:22:27;101078.38;;;22.28;35.44
62333;BME280;48624;49.812;8.562;2023-05-19T11:24:54;101065.59;;;22.47;35.74
62333;BME280;48624;49.812;8.562;2023-05-19T11:27:33;101063.38;;;23.00;34.70
62333;BME280;48624;49.812;8.562;2023-05-19T11:30:08;101067.94;;;22.41;34.53
62333;BME280;48624;49.812;8.562;2023-05-19T11:32:39;101059.69;;;22.93;33.81
62333;BME280;48624;49.812;8.562;2023-05-19T11:35:08;101060.03;;;21.72;36.24
62333;BME280;48624;49.812;8.562;2023-05-19T11:37:34;101060.88;;;21.38;36.03
62333;BME280;48624;49.812;8.562;2023-05-19T11:40:04;101054.69;;;21.45;35.88
62333;BME280;48624;49.812;8.562;2023-05-19T11:42:34;101053.34;;;20.88;37.05
62333;BME280;48624;49.812;8.562;2023-05-19T11:45:00;101057.63;;;21.26;38.36
62333;BME280;48624;49.812;8.562;2023-05-19T11:47:26;101046.28;;;21.92;36.55
62333;BME280;48624;49.812;8.562;2023-05-19T11:49:53;101036.38;;;22.25;35.35
62333;BME280;48624;49.812;8.562;2023-05-19T11:52:22;101048.84;;;22.26;35.05
62333;BME280;48624;49.812;8.562;2023-05-19T11:54:48;101034.13;;;21.96;34.94
62333;BME280;48624;49.812;8.562;2023-05-19T11:57:14;101030.97;;;22.09;35.17
62333;BME280;48624;49.812;8.562;2023-05-19T11:59:41;101031.72;;;21.76;35.62
62333;BME280;48624;49.812;8.562;2023-05-19T12:02:20;101034.03;;;22.30;35.96
62333;BME280;48624;49.812;8.562;2023-05-19T12:04:46;101032.84;;;22.33;34.90
62333;BME280;48624;49.812;8.562;2023-05-19T12:07:12;101020.72;;;22.37;34.13
62333;BME280;48624;49.812;8.562;2023-05-19T12:09:42;101030.97;;;22.17;34.45
62333;BME280;48624;49.812;8.562;2023-05-19T12:12:07;101026.25;;;22.27;33.72
62333;BME280;48624;49.812;8.562;2023-05-19T12:14:33;101023.94;;;22.57;34.21
62333;BME280;48624;49.812;8.562;2023-05-19T12:17:09;101031.00;;;22.42;34.25
62333;BME280;48624;49.812;8.562;2023-05-19T12:19:34;101019.63;;;23.05;33.02
62333;BME280;48624;49.812;8.562;2023-05-19T12:22:00;101025.28;;;22.70;34.86
62333;BME280;48624;49.812;8.562;2023-05-19T12:24:25;101022.06;;;22.58;34.23
62333;BME280;48624;49.812;8.562;2023-05-19T12:26:51;101025.75;;;22.32;34.31
62333;BME280;48624;49.812;8.562;2023-05-19T12:29:16;101020.72;;;22.37;34.33
62333;BME280;48624;49.812;8.562;2023-05-19T12:31:45;101021.19;;;22.91;34.22
62333;BME280;48624;49.812;8.562;2023-05-19T12:34:11;101014.91;;;23.07;34.21
62333;BME280;48624;49.812;8.562;2023-05-19T12:36:37;101015.03;;;23.13;33.46
62333;BME280;48624;49.812;8.562;2023-05-19T12:39:04;101025.72;;;22.90;34.76
62333;BME280;48624;49.812;8.562;2023-05-19T12:41:30;101013.25;;;22.81;34.72
62333;BME280;48624;49.812;8.562;2023-05-19T12:43:55;101013.66;;;23.34;34.35
62333;BME280;48624;49.812;8.562;2023-05-19T12:46:21;101012.72;;;23.02;34.61
62333;BME280;48624;49.812;8.562;2023-05-19T12:48:46;101011.13;;;23.33;33.34
62333;BME280;48624;49.812;8.562;2023-05-19T12:51:17;101009.94;;;23.35;33.78
62333;BME280;48624;49.812;8.562;2023-05-19T12:53:43;100995.63;;;23.58;34.06
62333;BME280;48624;49.812;8.562;2023-05-19T12:56:10;100997.25;;;23.99;32.78
62333;BME280;48624;49.812;8.562;2023-05-19T12:58:37;100989.09;;;24.31;32.68
62333;BME280;48624;49.812;8.562;2023-05-19T13:01:04;100996.66;;;24.35;32.92
62333;BME280;48624;49.812;8.562;2023-05-19T13:03:30;100999.91;;;24.69;31.59
62333;BME280;48624;49.812;8.562;2023-05-19T13:05:55;101007.66;;;24.34;32.58
62333;BME280;48624;49.812;8.562;2023-05-19T13:08:21;100999.81;;;23.69;33.28
62333;BME280;48624;49.812;8.562;2023-05-19T13:10:48;100997.41;;;23.74;34.14
62333;BME280;48624;49.812;8.562;2023-05-19T13:13:14;100991.75;;;24.16;33.12
62333;BME280;48624;49.812;8.562;2023-05-19T13:15:41;100990.94;;;24.30;33.50